Time;durP1;ratioP1;P1;durP2;ratioP2;P2;SDS_P1;SDS_P2;PMS_P1;PMS_P2;Temp;Humidity;BMP_temperature;BMP_pressure;BME280_temperature;BME280_humidity;BME280_pressure;Samples;Min_cycle;Max_cycle;Signal;HPM_P1;HPM_P2
2021/12/02 00:01:12;;;;;;;677.38;620.73;;;;;;;19.17;50.52;98732.68;;;;-49
2021/12/02 00:04:12;;;;;;;492.23;451.03;;;;;;;19.15;50.57;98736.92;;;;-53
2021/12/02 00:07:12;;;;;;;665.77;609.93;;;;;;;19.13;50.60;98736.98;;;;-52
2021/12/02 00:10:12;;;;;;;549.72;503.33;;;;;;;19.12;50.59;98743.10;;;;-50
2021/12/02 00:13:12;;;;;;;593.55;543.27;;;;;;;19.11;50.62;98744.81;;;;-49
2021/12/02 00:16:21;;;;;;;649.79;594.79;;;;;;;19.08;50.64;98737.55;;;;-49
2021/12/02 00:22:12;;;;;;;605.95;554.61;;;;;;;19.05;50.64;98737.72;;;;-53
2021/12/02 00:25:12;;;;;;;624.45;571.53;;;;;;;19.03;50.66;98740.59;;;;-52
2021/12/02 00:28:12;;;;;;;643.53;589.27;;;;;;;19.02;50.65;98736.23;;;;-53
2021/12/02 00:31:12;;;;;;;706.70;647.67;;;;;;;19.00;50.67;98733.81;;;;-53
2021/12/02 00:34:12;;;;;;;688.45;630.68;;;;;;;18.99;50.70;98736.30;;;;-53
2021/12/02 00:37:12;;;;;;;645.85;591.55;;;;;;;18.97;50.67;98737.71;;;;-50
2021/12/02 00:40:12;;;;;;;682.63;625.48;;;;;;;18.94;50.72;98735.63;;;;-55
2021/12/02 00:43:12;;;;;;;624.73;571.92;;;;;;;18.94;50.65;98739.28;;;;-55
2021/12/02 00:46:12;;;;;;;524.81;480.67;;;;;;;18.92;50.75;98738.12;;;;-49
2021/12/02 00:49:13;;;;;;;489.13;448.08;;;;;;;18.91;50.73;98732.47;;;;-50
2021/12/02 00:52:12;;;;;;;451.96;414.30;;;;;;;18.90;50.74;98732.31;;;;-54
2021/12/02 00:55:12;;;;;;;351.03;323.21;;;;;;;18.88;50.78;98733.31;;;;-55
2021/12/02 00:58:15;;;;;;;428.50;392.95;;;;;;;18.87;50.76;98727.67;;;;-55
2021/12/02 01:01:12;;;;;;;363.11;334.01;;;;;;;18.84;50.85;98728.03;;;;-55
2021/12/02 01:04:12;;;;;;;479.81;439.52;;;;;;;18.84;50.77;98728.94;;;;-54
2021/12/02 01:07:12;;;;;;;402.59;369.58;;;;;;;18.83;50.79;98730.24;;;;-55
2021/12/02 01:10:12;;;;;;;468.49;429.23;;;;;;;18.82;50.80;98734.58;;;;-54
2021/12/02 01:13:12;;;;;;;450.72;413.02;;;;;;;18.81;50.77;98731.84;;;;-50
2021/12/02 01:16:12;;;;;;;451.43;413.70;;;;;;;18.78;50.83;98725.30;;;;-52
2021/12/02 01:19:12;;;;;;;530.12;485.37;;;;;;;18.78;50.83;98731.38;;;;-52
2021/12/02 01:22:12;;;;;;;573.87;525.22;;;;;;;18.75;50.87;98733.52;;;;-49
2021/12/02 01:25:12;;;;;;;526.79;482.17;;;;;;;18.74;50.86;98734.20;;;;-53
2021/12/02 01:28:12;;;;;;;725.85;665.57;;;;;;;18.72;50.84;98736.35;;;;-49
2021/12/02 01:31:12;;;;;;;707.13;648.03;;;;;;;18.71;50.85;98736.84;;;;-48
2021/12/02 01:34:12;;;;;;;630.73;577.12;;;;;;;18.70;50.90;98740.86;;;;-49
2021/12/02 01:37:12;;;;;;;676.16;619.63;;;;;;;18.70;50.86;98747.77;;;;-52
2021/12/02 01:40:12;;;;;;;536.87;491.30;;;;;;;18.68;50.88;98751.28;;;;-49
2021/12/02 01:43:12;;;;;;;469.04;429.55;;;;;;;18.66;50.87;98751.73;;;;-49
2021/12/02 01:46:12;;;;;;;407.86;374.23;;;;;;;18.64;50.88;98748.92;;;;-49
2021/12/02 01:49:12;;;;;;;520.55;476.62;;;;;;;18.63;50.88;98749.23;;;;-49
2021/12/02 01:52:12;;;;;;;605.69;554.43;;;;;;;18.63;50.88;98752.48;;;;-54
2021/12/02 01:55:12;;;;;;;479.94;440.73;;;;;;;18.62;50.88;98754.47;;;;-54
2021/12/02 01:58:12;;;;;;;593.87;543.63;;;;;;;18.60;50.90;98747.85;;;;-54
2021/12/02 02:01:12;;;;;;;577.91;529.04;;;;;;;18.58;50.91;98745.37;;;;-49
2021/12/02 02:04:12;;;;;;;585.33;535.63;;;;;;;18.57;50.90;98743.69;;;;-49
2021/12/02 02:07:12;;;;;;;249.11;230.45;;;;;;;18.56;50.89;98745.41;;;;-50
2021/12/02 02:10:12;;;;;;;269.23;248.96;;;;;;;18.54;50.90;98746.80;;;;-50
2021/12/02 02:13:12;;;;;;;379.23;348.39;;;;;;;18.53;50.92;98748.61;;;;-54
2021/12/02 02:16:12;;;;;;;590.08;540.02;;;;;;;18.52;50.91;98748.14;;;;-49
2021/12/02 02:19:13;;;;;;;603.13;551.89;;;;;;;18.52;50.89;98748.39;;;;-49
2021/12/02 02:22:13;;;;;;;568.31;519.93;;;;;;;18.50;50.92;98748.82;;;;-49
2021/12/02 02:25:15;;;;;;;548.63;501.81;;;;;;;18.49;50.96;98746.50;;;;-49
2021/12/02 02:28:12;;;;;;;619.05;566.37;;;;;;;18.48;50.94;98749.09;;;;-49
2021/12/02 02:31:12;;;;;;;565.61;517.35;;;;;;;18.46;50.93;98741.58;;;;-54
2021/12/02 02:34:12;;;;;;;601.61;550.25;;;;;;;18.46;50.97;98744.60;;;;-54
2021/12/02 02:37:12;;;;;;;410.01;376.01;;;;;;;18.44;50.97;98749.25;;;;-49
2021/12/02 02:40:14;;;;;;;395.99;363.41;;;;;;;18.44;50.97;98753.95;;;;-54
2021/12/02 02:43:12;;;;;;;412.73;378.53;;;;;;;18.43;50.95;98758.42;;;;-55
2021/12/02 02:46:12;;;;;;;618.75;566.07;;;;;;;18.42;50.99;98762.67;;;;-54
2021/12/02 02:49:12;;;;;;;463.41;424.55;;;;;;;18.41;50.97;98752.88;;;;-54
2021/12/02 02:52:12;;;;;;;521.07;476.73;;;;;;;18.40;50.95;98752.88;;;;-54
2021/12/02 02:55:17;;;;;;;355.54;327.06;;;;;;;18.38;50.96;98747.14;;;;-54
2021/12/02 02:58:17;;;;;;;420.98;385.87;;;;;;;18.38;50.94;98750.47;;;;-52
2021/12/02 03:01:24;;;;;;;507.41;464.46;;;;;;;18.36;50.96;98749.53;;;;-52
2021/12/02 03:04:19;;;;;;;538.86;492.78;;;;;;;18.36;50.97;98746.77;;;;-49
2021/12/02 03:07:20;;;;;;;421.28;386.03;;;;;;;18.36;50.99;98745.66;;;;-52
2021/12/02 03:10:16;;;;;;;441.75;404.57;;;;;;;18.34;51.00;98744.70;;;;-54
2021/12/02 03:13:15;;;;;;;471.09;431.29;;;;;;;18.33;51.00;98744.75;;;;-54
2021/12/02 03:19:12;;;;;;;455.10;416.85;;;;;;;18.31;51.00;98753.20;;;;-49
2021/12/02 03:22:12;;;;;;;599.57;548.23;;;;;;;18.31;50.99;98753.61;;;;-49
2021/12/02 03:25:12;;;;;;;606.49;554.66;;;;;;;18.29;51.00;98755.10;;;;-48
2021/12/02 03:28:12;;;;;;;559.58;511.76;;;;;;;18.28;51.02;98757.94;;;;-48
2021/12/02 03:31:12;;;;;;;585.55;535.33;;;;;;;18.27;50.99;98760.31;;;;-49
2021/12/02 03:34:12;;;;;;;557.61;510.11;;;;;;;18.26;50.99;98759.75;;;;-54
2021/12/02 03:37:12;;;;;;;604.13;552.62;;;;;;;18.25;50.96;98758.90;;;;-50
2021/12/02 03:40:12;;;;;;;449.45;411.69;;;;;;;18.24;50.98;98748.38;;;;-48
2021/12/02 03:43:12;;;;;;;562.77;514.79;;;;;;;18.23;51.02;98754.05;;;;-49
2021/12/02 03:46:12;;;;;;;541.25;495.39;;;;;;;18.23;51.02;98754.88;;;;-49
2021/12/02 03:49:12;;;;;;;614.51;562.14;;;;;;;18.22;50.99;98744.73;;;;-54
2021/12/02 03:52:12;;;;;;;573.37;524.29;;;;;;;18.21;51.04;98742.75;;;;-55
2021/12/02 03:55:12;;;;;;;475.10;435.01;;;;;;;18.19;51.08;98741.38;;;;-52
2021/12/02 03:58:12;;;;;;;393.43;360.97;;;;;;;18.18;51.02;98742.30;;;;-51
2021/12/02 04:01:12;;;;;;;477.31;437.06;;;;;;;18.18;51.02;98742.15;;;;-51
2021/12/02 04:04:12;;;;;;;524.71;480.23;;;;;;;18.17;51.01;98745.54;;;;-54
2021/12/02 04:07:12;;;;;;;384.27;352.98;;;;;;;18.16;51.07;98739.27;;;;-54
2021/12/02 04:10:12;;;;;;;401.33;368.21;;;;;;;18.16;51.02;98741.42;;;;-54
2021/12/02 04:13:17;;;;;;;370.82;340.85;;;;;;;18.15;51.03;98742.00;;;;-54
2021/12/02 04:16:16;;;;;;;492.70;451.16;;;;;;;18.15;51.06;98744.86;;;;-49
2021/12/02 04:19:13;;;;;;;441.59;404.45;;;;;;;18.13;51.10;98744.79;;;;-49
2021/12/02 04:22:12;;;;;;;377.59;346.98;;;;;;;18.12;51.08;98748.88;;;;-49
2021/12/02 04:25:12;;;;;;;433.01;396.81;;;;;;;18.12;51.12;98753.73;;;;-52
2021/12/02 04:28:12;;;;;;;413.73;379.68;;;;;;;18.10;51.13;98750.36;;;;-52
2021/12/02 04:31:12;;;;;;;500.85;458.87;;;;;;;18.10;51.08;98751.44;;;;-55
2021/12/02 04:34:12;;;;;;;395.27;362.85;;;;;;;18.10;51.09;98756.80;;;;-49
2021/12/02 04:37:12;;;;;;;289.97;267.79;;;;;;;18.08;51.12;98751.37;;;;-49
2021/12/02 04:40:14;;;;;;;463.35;424.48;;;;;;;18.07;51.10;98749.09;;;;-49
2021/12/02 04:43:12;;;;;;;433.91;397.53;;;;;;;18.07;51.12;98743.91;;;;-50
2021/12/02 04:46:12;;;;;;;354.29;325.90;;;;;;;18.05;51.14;98733.89;;;;-49
2021/12/02 04:49:12;;;;;;;311.13;286.99;;;;;;;18.06;51.18;98732.78;;;;-52
2021/12/02 04:52:12;;;;;;;397.07;364.29;;;;;;;18.05;51.11;98733.08;;;;-51
2021/12/02 04:55:12;;;;;;;389.07;357.13;;;;;;;18.04;51.14;98732.22;;;;-49
2021/12/02 04:58:12;;;;;;;466.83;427.93;;;;;;;18.03;51.11;98729.96;;;;-49
2021/12/02 05:01:12;;;;;;;372.36;342.07;;;;;;;18.03;51.14;98728.59;;;;-53
2021/12/02 05:04:12;;;;;;;455.65;416.86;;;;;;;18.01;51.13;98725.04;;;;-49
2021/12/02 05:07:12;;;;;;;306.95;283.19;;;;;;;18.01;51.15;98724.33;;;;-49
2021/12/02 05:10:12;;;;;;;522.21;478.23;;;;;;;18.00;51.19;98731.07;;;;-49
2021/12/02 05:13:12;;;;;;;345.89;317.98;;;;;;;18.00;51.14;98731.88;;;;-49
2021/12/02 05:16:12;;;;;;;313.55;289.07;;;;;;;17.99;51.14;98739.17;;;;-49
2021/12/02 05:19:12;;;;;;;352.95;324.10;;;;;;;17.92;49.63;98742.78;;;;-50
2021/12/02 05:22:12;;;;;;;398.26;365.11;;;;;;;17.76;48.84;98740.62;;;;-48
2021/12/02 05:25:12;;;;;;;476.51;435.89;;;;;;;17.63;48.54;98744.94;;;;-59
2021/12/02 05:28:12;;;;;;;474.31;433.67;;;;;;;17.58;48.59;98742.19;;;;-58
2021/12/02 05:31:12;;;;;;;659.43;603.35;;;;;;;17.63;49.05;98738.13;;;;-58
2021/12/02 05:34:12;;;;;;;592.00;540.17;;;;;;;17.69;49.56;98737.41;;;;-58
2021/12/02 05:37:12;;;;;;;585.18;534.03;;;;;;;17.73;49.75;98724.95;;;;-57
2021/12/02 05:40:12;;;;;;;607.14;554.31;;;;;;;17.74;49.81;98725.17;;;;-54
2021/12/02 05:43:12;;;;;;;588.00;536.51;;;;;;;17.75;49.91;98724.20;;;;-54
2021/12/02 05:46:12;;;;;;;567.99;518.30;;;;;;;17.76;49.97;98718.27;;;;-52
2021/12/02 05:49:12;;;;;;;546.82;499.34;;;;;;;17.75;50.06;98712.70;;;;-52
2021/12/02 05:52:12;;;;;;;497.31;454.41;;;;;;;17.76;50.10;98711.30;;;;-49
2021/12/02 05:55:12;;;;;;;575.19;525.35;;;;;;;17.77;50.21;98707.17;;;;-49
2021/12/02 05:58:13;;;;;;;619.39;565.49;;;;;;;17.76;50.16;98705.16;;;;-49
2021/12/02 06:01:12;;;;;;;489.57;447.39;;;;;;;17.76;50.24;98704.09;;;;-49
2021/12/02 06:04:12;;;;;;;449.30;410.77;;;;;;;17.78;50.25;98711.19;;;;-49
2021/12/02 06:07:12;;;;;;;540.67;493.62;;;;;;;17.76;50.30;98713.16;;;;-49
2021/12/02 06:10:12;;;;;;;513.66;469.35;;;;;;;17.75;50.42;98700.23;;;;-49
2021/12/02 06:13:12;;;;;;;547.04;499.29;;;;;;;17.76;50.37;98701.64;;;;-49
2021/12/02 06:16:12;;;;;;;541.86;494.59;;;;;;;17.75;50.45;98703.70;;;;-57
2021/12/02 06:19:12;;;;;;;543.89;496.97;;;;;;;17.74;50.40;98698.36;;;;-58
2021/12/02 06:22:13;;;;;;;528.93;483.57;;;;;;;17.74;50.47;98702.81;;;;-58
2021/12/02 06:28:12;;;;;;;610.34;557.55;;;;;;;17.75;50.54;98700.14;;;;-47
2021/12/02 06:31:12;;;;;;;678.53;620.36;;;;;;;17.74;50.50;98708.57;;;;-47
2021/12/02 06:34:12;;;;;;;680.36;622.08;;;;;;;17.74;50.56;98714.96;;;;-47
2021/12/02 06:37:12;;;;;;;671.33;613.71;;;;;;;17.74;50.55;98715.14;;;;-47
2021/12/02 06:40:12;;;;;;;671.33;613.83;;;;;;;17.74;50.59;98716.69;;;;-47
2021/12/02 06:43:14;;;;;;;662.08;605.44;;;;;;;17.74;50.60;98723.06;;;;-57
2021/12/02 06:46:12;;;;;;;677.99;619.97;;;;;;;17.74;50.58;98718.30;;;;-57
2021/12/02 06:49:12;;;;;;;672.56;615.04;;;;;;;17.73;50.65;98716.05;;;;-59
2021/12/02 06:52:14;;;;;;;659.49;603.06;;;;;;;17.73;50.63;98724.39;;;;-47
2021/12/02 06:55:12;;;;;;;689.39;630.45;;;;;;;17.73;50.60;98727.14;;;;-49
2021/12/02 06:58:12;;;;;;;693.47;634.33;;;;;;;17.72;50.69;98727.06;;;;-47
2021/12/02 07:01:12;;;;;;;686.89;628.35;;;;;;;17.72;50.71;98732.43;;;;-47
2021/12/02 07:04:12;;;;;;;687.42;628.22;;;;;;;17.73;50.68;98735.26;;;;-54
2021/12/02 07:07:12;;;;;;;685.19;626.90;;;;;;;17.72;50.73;98735.67;;;;-54
2021/12/02 07:10:12;;;;;;;686.21;627.18;;;;;;;17.72;50.69;98733.46;;;;-57
2021/12/02 07:13:12;;;;;;;687.50;628.25;;;;;;;17.72;50.65;98735.24;;;;-57
2021/12/02 07:16:12;;;;;;;688.91;629.29;;;;;;;17.71;50.73;98736.80;;;;-53
2021/12/02 07:19:12;;;;;;;692.33;632.63;;;;;;;17.71;50.69;98734.39;;;;-47
2021/12/02 07:22:12;;;;;;;690.88;631.16;;;;;;;17.71;50.77;98736.97;;;;-46
2021/12/02 07:25:11;;;;;;;687.61;628.11;;;;;;;17.71;50.76;98747.59;;;;-54
2021/12/02 07:28:12;;;;;;;687.50;627.89;;;;;;;17.71;50.78;98745.50;;;;-47
2021/12/02 07:31:12;;;;;;;687.10;627.77;;;;;;;17.71;50.76;98754.08;;;;-54
2021/12/02 07:34:12;;;;;;;688.11;628.48;;;;;;;17.71;50.82;98760.88;;;;-48
2021/12/02 07:37:12;;;;;;;685.93;626.47;;;;;;;17.71;50.74;98768.34;;;;-47
2021/12/02 07:40:12;;;;;;;689.29;629.59;;;;;;;17.70;50.76;98768.91;;;;-47
2021/12/02 07:43:12;;;;;;;687.55;627.87;;;;;;;17.69;50.76;98771.43;;;;-59
2021/12/02 07:46:12;;;;;;;684.22;624.73;;;;;;;17.70;50.75;98776.11;;;;-54
2021/12/02 07:49:11;;;;;;;685.49;626.09;;;;;;;17.68;50.77;98774.77;;;;-58
2021/12/02 07:52:12;;;;;;;690.19;630.72;;;;;;;17.67;50.77;98781.48;;;;-58
2021/12/02 07:55:12;;;;;;;681.63;622.43;;;;;;;17.67;50.76;98785.38;;;;-47
2021/12/02 07:58:12;;;;;;;680.26;621.21;;;;;;;17.68;50.80;98786.52;;;;-47
2021/12/02 08:01:12;;;;;;;684.71;625.60;;;;;;;17.67;50.79;98790.56;;;;-50
2021/12/02 08:04:12;;;;;;;684.33;625.29;;;;;;;17.66;50.80;98789.63;;;;-50
2021/12/02 08:07:12;;;;;;;680.32;621.65;;;;;;;17.66;50.77;98791.16;;;;-49
2021/12/02 08:10:12;;;;;;;688.57;629.19;;;;;;;17.66;50.78;98791.90;;;;-53
2021/12/02 08:13:13;;;;;;;684.91;625.67;;;;;;;17.66;50.73;98796.00;;;;-49
2021/12/02 08:16:12;;;;;;;686.68;627.38;;;;;;;17.65;50.78;98802.10;;;;-57
2021/12/02 08:19:12;;;;;;;685.88;626.51;;;;;;;17.64;50.79;98802.44;;;;-47
2021/12/02 08:22:12;;;;;;;685.91;626.41;;;;;;;17.65;50.87;98803.48;;;;-57
2021/12/02 08:25:12;;;;;;;682.25;623.06;;;;;;;17.64;50.87;98806.25;;;;-57
2021/12/02 08:28:11;;;;;;;599.87;547.67;;;;;;;17.64;50.80;98810.28;;;;-58
2021/12/02 08:31:12;;;;;;;532.09;485.87;;;;;;;17.63;50.76;98819.45;;;;-49
2021/12/02 08:34:12;;;;;;;578.36;527.74;;;;;;;17.63;50.84;98825.22;;;;-58
2021/12/02 08:37:12;;;;;;;595.88;543.79;;;;;;;17.63;50.83;98826.27;;;;-50
2021/12/02 08:40:12;;;;;;;659.83;602.55;;;;;;;17.62;50.85;98836.81;;;;-49
2021/12/02 08:43:12;;;;;;;537.28;490.33;;;;;;;17.63;50.81;98842.47;;;;-49
2021/12/02 08:46:12;;;;;;;525.88;480.23;;;;;;;17.63;50.75;98837.69;;;;-50
2021/12/02 08:49:12;;;;;;;583.41;532.42;;;;;;;17.63;50.79;98839.63;;;;-47
2021/12/02 08:52:12;;;;;;;492.85;450.11;;;;;;;17.62;50.77;98845.72;;;;-47
2021/12/02 08:55:12;;;;;;;682.35;623.16;;;;;;;17.61;50.79;98851.88;;;;-54
2021/12/02 08:58:12;;;;;;;568.91;519.23;;;;;;;17.62;50.74;98855.02;;;;-58
2021/12/02 09:01:11;;;;;;;544.46;497.05;;;;;;;17.64;50.86;98858.83;;;;-49
2021/12/02 09:04:12;;;;;;;682.59;623.24;;;;;;;17.67;51.13;98862.75;;;;-54
2021/12/02 09:07:12;;;;;;;686.14;626.69;;;;;;;17.70;51.39;98867.91;;;;-53
2021/12/02 09:10:12;;;;;;;689.18;629.59;;;;;;;17.75;51.56;98874.80;;;;-48
2021/12/02 09:13:12;;;;;;;692.82;632.87;;;;;;;17.82;51.45;98875.69;;;;-49
2021/12/02 09:16:12;;;;;;;689.51;630.02;;;;;;;17.88;51.72;98884.80;;;;-56
2021/12/02 09:19:12;;;;;;;659.45;602.75;;;;;;;17.94;51.79;98889.82;;;;-52
2021/12/02 09:22:12;;;;;;;568.68;519.43;;;;;;;18.02;51.91;98892.73;;;;-50
2021/12/02 09:25:12;;;;;;;518.37;473.61;;;;;;;18.09;51.92;98890.59;;;;-48
2021/12/02 09:28:12;;;;;;;473.46;433.17;;;;;;;18.16;52.12;98892.97;;;;-50
2021/12/02 09:31:12;;;;;;;689.39;631.31;;;;;;;18.21;52.02;98898.23;;;;-54
2021/12/02 09:34:12;;;;;;;717.79;657.25;;;;;;;18.27;52.36;98904.55;;;;-51
2021/12/02 09:37:12;;;;;;;721.16;660.41;;;;;;;18.32;52.22;98906.53;;;;-51
2021/12/02 09:40:12;;;;;;;532.44;486.77;;;;;;;18.38;52.04;98916.89;;;;-59
2021/12/02 09:43:13;;;;;;;424.13;388.24;;;;;;;18.45;52.08;98920.85;;;;-49
2021/12/02 09:46:12;;;;;;;477.13;436.79;;;;;;;18.50;52.12;98918.67;;;;-51
2021/12/02 09:49:11;;;;;;;461.98;422.91;;;;;;;18.55;52.02;98917.22;;;;-50
2021/12/02 09:52:14;;;;;;;522.69;478.19;;;;;;;18.55;51.01;98912.45;;;;-50
2021/12/02 09:55:18;;;;;;;543.06;497.00;;;;;;;18.56;50.49;98911.52;;;;-49
2021/12/02 09:58:18;;;;;;;537.12;491.35;;;;;;;18.58;50.30;98915.16;;;;-57
2021/12/02 10:01:13;;;;;;;526.93;482.17;;;;;;;18.60;50.54;98913.19;;;;-51
2021/12/02 10:04:13;;;;;;;640.11;586.27;;;;;;;18.61;49.99;98910.47;;;;-55
2021/12/02 10:07:16;;;;;;;668.73;612.64;;;;;;;18.66;50.37;98912.12;;;;-51
2021/12/02 10:10:14;;;;;;;654.93;599.50;;;;;;;18.67;50.54;98904.13;;;;-51
2021/12/02 10:13:21;;;;;;;648.99;593.94;;;;;;;18.71;50.76;98905.78;;;;-51
2021/12/02 10:16:16;;;;;;;731.50;670.35;;;;;;;18.76;50.84;98897.28;;;;-49
2021/12/02 10:19:13;;;;;;;626.53;572.88;;;;;;;18.82;50.92;98894.28;;;;-50
2021/12/02 10:22:13;;;;;;;537.09;491.49;;;;;;;18.85;50.80;98891.40;;;;-50
2021/12/02 10:25:12;;;;;;;718.89;658.95;;;;;;;18.87;50.83;98892.27;;;;-55
2021/12/02 10:28:12;;;;;;;733.43;672.62;;;;;;;18.89;50.85;98893.38;;;;-50
2021/12/02 10:31:12;;;;;;;747.53;685.80;;;;;;;18.91;50.75;98896.02;;;;-52
2021/12/02 10:34:12;;;;;;;746.46;684.99;;;;;;;18.93;50.80;98890.69;;;;-52
2021/12/02 10:37:12;;;;;;;753.42;691.30;;;;;;;19.03;51.19;98890.05;;;;-51
2021/12/02 10:40:12;;;;;;;759.94;697.37;;;;;;;19.07;51.26;98892.56;;;;-48
2021/12/02 10:43:12;;;;;;;762.32;699.75;;;;;;;19.13;51.26;98895.72;;;;-53
2021/12/02 10:46:11;;;;;;;761.61;699.32;;;;;;;19.15;50.76;98894.93;;;;-58
2021/12/02 10:49:12;;;;;;;741.83;680.47;;;;;;;19.21;51.17;98894.52;;;;-54
2021/12/02 10:52:13;;;;;;;698.63;640.40;;;;;;;19.23;51.24;98885.95;;;;-54
2021/12/02 10:55:12;;;;;;;735.20;674.47;;;;;;;19.25;51.23;98883.55;;;;-56
2021/12/02 10:58:12;;;;;;;713.85;654.36;;;;;;;19.31;51.25;98877.95;;;;-53
2021/12/02 11:01:11;;;;;;;738.37;677.69;;;;;;;19.32;51.17;98871.65;;;;-54
2021/12/02 11:04:13;;;;;;;739.28;678.34;;;;;;;19.36;51.30;98871.42;;;;-57
2021/12/02 11:07:13;;;;;;;763.49;700.88;;;;;;;19.39;51.29;98870.70;;;;-59
2021/12/02 11:10:11;;;;;;;756.77;694.75;;;;;;;19.43;51.11;98875.77;;;;-59
2021/12/02 11:13:12;;;;;;;716.76;657.12;;;;;;;19.45;51.09;98879.29;;;;-56
2021/12/02 11:16:11;;;;;;;740.62;679.76;;;;;;;19.47;51.29;98880.17;;;;-61
2021/12/02 11:19:12;;;;;;;736.56;675.94;;;;;;;19.48;50.91;98882.41;;;;-59
2021/12/02 11:22:12;;;;;;;762.64;700.24;;;;;;;19.52;51.29;98888.51;;;;-55
2021/12/02 11:25:12;;;;;;;669.09;613.32;;;;;;;19.52;50.72;98888.16;;;;-58
2021/12/02 11:28:12;;;;;;;677.95;621.57;;;;;;;19.51;50.47;98894.23;;;;-58
2021/12/02 11:31:12;;;;;;;780.97;717.41;;;;;;;19.49;50.38;98893.78;;;;-58
2021/12/02 11:34:12;;;;;;;773.39;710.20;;;;;;;19.48;50.37;98895.79;;;;-58
2021/12/02 11:37:12;;;;;;;770.25;707.69;;;;;;;19.48;50.29;98892.32;;;;-59
2021/12/02 11:40:11;;;;;;;774.20;711.23;;;;;;;19.48;50.29;98890.86;;;;-58
2021/12/02 11:43:11;;;;;;;768.48;705.77;;;;;;;19.48;50.26;98891.75;;;;-58
2021/12/02 11:46:12;;;;;;;774.34;711.33;;;;;;;19.48;50.26;98885.89;;;;-58
2021/12/02 11:49:11;;;;;;;752.98;691.29;;;;;;;19.49;50.22;98886.28;;;;-55
2021/12/02 11:52:12;;;;;;;756.23;694.20;;;;;;;19.49;50.23;98889.94;;;;-47
2021/12/02 11:55:12;;;;;;;735.29;674.63;;;;;;;19.50;50.24;98894.54;;;;-47
2021/12/02 11:58:11;;;;;;;761.70;699.37;;;;;;;19.51;50.20;98893.80;;;;-47
2021/12/02 12:01:11;;;;;;;767.63;705.00;;;;;;;19.51;50.14;98891.45;;;;-47
2021/12/02 12:04:12;;;;;;;772.01;709.12;;;;;;;19.52;50.17;98894.11;;;;-47
2021/12/02 12:07:12;;;;;;;751.03;690.17;;;;;;;19.53;50.12;98887.10;;;;-47
2021/12/02 12:10:12;;;;;;;672.15;616.05;;;;;;;19.54;50.06;98889.53;;;;-55
2021/12/02 12:13:12;;;;;;;776.22;712.93;;;;;;;19.55;50.09;98892.27;;;;-53
2021/12/02 12:16:11;;;;;;;765.69;703.15;;;;;;;19.56;50.08;98889.17;;;;-54
2021/12/02 12:19:12;;;;;;;771.67;708.72;;;;;;;19.57;50.23;98887.44;;;;-54
2021/12/02 12:22:13;;;;;;;718.11;658.58;;;;;;;19.59;50.21;98885.69;;;;-54
2021/12/02 12:25:12;;;;;;;768.17;705.46;;;;;;;19.59;50.04;98886.82;;;;-54
2021/12/02 12:28:12;;;;;;;773.62;710.60;;;;;;;19.60;50.05;98886.66;;;;-49
2021/12/02 12:31:11;;;;;;;698.95;640.65;;;;;;;19.61;50.00;98890.53;;;;-54
2021/12/02 12:34:11;;;;;;;666.64;611.01;;;;;;;19.62;49.93;98887.19;;;;-55
2021/12/02 12:37:12;;;;;;;737.06;676.27;;;;;;;19.63;49.91;98887.87;;;;-54
2021/12/02 12:40:12;;;;;;;748.22;686.87;;;;;;;19.63;50.04;98890.16;;;;-55
2021/12/02 12:43:12;;;;;;;766.57;703.95;;;;;;;19.65;49.97;98890.60;;;;-54
2021/12/02 12:46:11;;;;;;;779.28;715.95;;;;;;;19.65;50.04;98892.06;;;;-55
2021/12/02 12:49:11;;;;;;;758.14;696.41;;;;;;;19.66;49.93;98897.41;;;;-53
2021/12/02 12:52:12;;;;;;;773.91;710.99;;;;;;;19.67;49.87;98894.46;;;;-55
2021/12/02 12:55:11;;;;;;;791.08;727.22;;;;;;;19.69;49.86;98895.40;;;;-55
2021/12/02 12:58:12;;;;;;;779.24;715.75;;;;;;;19.69;49.85;98893.05;;;;-58
2021/12/02 13:01:11;;;;;;;783.62;720.09;;;;;;;19.70;49.96;98898.08;;;;-58
2021/12/02 13:04:13;;;;;;;789.38;725.65;;;;;;;19.71;49.84;98898.89;;;;-49
2021/12/02 13:07:13;;;;;;;786.91;723.23;;;;;;;19.71;49.92;98896.77;;;;-49
2021/12/02 13:10:15;;;;;;;781.19;717.74;;;;;;;19.74;49.86;98919.74;;;;-49
2021/12/02 13:13:11;;;;;;;792.37;728.44;;;;;;;19.74;49.95;98932.50;;;;-47
2021/12/02 13:16:12;;;;;;;688.46;631.47;;;;;;;19.74;49.98;98931.77;;;;-47
2021/12/02 13:19:13;;;;;;;463.77;425.35;;;;;;;19.74;49.96;98938.49;;;;-49
2021/12/02 13:22:11;;;;;;;780.24;717.59;;;;;;;19.78;49.62;98946.05;;;;-51
2021/12/02 13:25:12;;;;;;;785.85;723.07;;;;;;;19.79;49.64;98955.88;;;;-61
2021/12/02 13:28:11;;;;;;;786.14;722.76;;;;;;;19.78;49.76;98958.90;;;;-51
2021/12/02 13:31:12;;;;;;;781.35;718.22;;;;;;;19.78;49.78;98963.70;;;;-51
2021/12/02 13:34:11;;;;;;;769.95;707.90;;;;;;;19.79;49.90;98964.98;;;;-53
2021/12/02 13:37:13;;;;;;;780.28;717.32;;;;;;;19.79;49.85;98969.77;;;;-54
2021/12/02 13:40:12;;;;;;;771.66;709.41;;;;;;;19.79;49.83;98967.97;;;;-51
2021/12/02 13:43:13;;;;;;;794.47;730.47;;;;;;;19.82;49.82;98970.53;;;;-51
2021/12/02 13:46:13;;;;;;;790.15;726.27;;;;;;;19.81;49.70;98962.26;;;;-51
2021/12/02 13:49:16;;;;;;;785.76;722.29;;;;;;;19.82;49.76;98970.05;;;;-51
2021/12/02 13:52:24;;;;;;;784.99;721.65;;;;;;;19.82;49.83;98974.93;;;;-51
2021/12/02 13:55:14;;;;;;;787.35;723.78;;;;;;;19.82;49.80;98975.81;;;;-51
2021/12/02 13:58:17;;;;;;;787.45;723.77;;;;;;;19.83;49.80;98975.64;;;;-51
2021/12/02 14:01:12;;;;;;;789.92;726.14;;;;;;;19.84;49.78;98976.94;;;;-50
2021/12/02 14:04:12;;;;;;;788.92;725.20;;;;;;;19.84;49.83;98980.17;;;;-51
2021/12/02 14:07:11;;;;;;;792.21;728.46;;;;;;;19.85;49.83;98976.55;;;;-51
2021/12/02 14:10:12;;;;;;;779.55;716.20;;;;;;;19.86;49.84;98978.92;;;;-51
2021/12/02 14:13:12;;;;;;;783.49;720.39;;;;;;;19.87;49.83;98986.30;;;;-59
2021/12/02 14:16:11;;;;;;;788.99;725.37;;;;;;;19.88;49.77;98995.45;;;;-59
2021/12/02 14:19:12;;;;;;;793.01;729.17;;;;;;;19.88;49.83;99001.80;;;;-59
2021/12/02 14:22:11;;;;;;;794.49;730.60;;;;;;;19.89;49.91;99009.67;;;;-57
2021/12/02 14:25:11;;;;;;;794.31;730.38;;;;;;;19.89;49.91;99019.01;;;;-57
2021/12/02 14:28:12;;;;;;;799.09;734.80;;;;;;;19.92;49.74;99027.31;;;;-59
2021/12/02 14:31:11;;;;;;;800.80;736.61;;;;;;;19.92;49.79;99035.47;;;;-51
2021/12/02 14:34:12;;;;;;;800.44;736.27;;;;;;;19.92;49.84;99034.96;;;;-59
2021/12/02 14:37:14;;;;;;;798.39;734.21;;;;;;;19.94;49.79;99045.19;;;;-56
2021/12/02 14:40:11;;;;;;;798.61;734.45;;;;;;;19.94;49.86;99051.04;;;;-57
2021/12/02 14:43:12;;;;;;;794.24;730.25;;;;;;;19.94;49.82;99052.42;;;;-57
2021/12/02 14:46:11;;;;;;;798.68;734.54;;;;;;;19.95;49.87;99056.31;;;;-57
2021/12/02 14:49:12;;;;;;;795.75;731.74;;;;;;;19.96;49.87;99064.98;;;;-57
2021/12/02 14:52:15;;;;;;;796.04;732.09;;;;;;;19.96;49.85;99071.72;;;;-57
2021/12/02 14:55:12;;;;;;;796.28;732.31;;;;;;;19.97;49.84;99084.39;;;;-57
2021/12/02 14:58:11;;;;;;;63.73;59.18;;;;;;;20.04;50.17;99087.44;;;;-58
2021/12/02 15:01:11;;;;;;;147.87;138.79;;;;;;;20.08;50.14;99090.06;;;;-50
2021/12/02 15:04:11;;;;;;;21.75;20.36;;;;;;;20.11;50.20;99097.73;;;;-52
2021/12/02 15:07:12;;;;;;;10.25;9.47;;;;;;;20.14;50.44;99102.31;;;;-52
2021/12/02 15:10:12;;;;;;;9.39;8.74;;;;;;;20.17;49.97;99106.73;;;;-57
2021/12/02 15:13:14;;;;;;;300.86;280.53;;;;;;;20.22;50.30;99104.53;;;;-52
2021/12/02 15:16:11;;;;;;;624.75;580.67;;;;;;;20.22;50.13;99112.00;;;;-47
2021/12/02 15:19:11;;;;;;;405.51;377.65;;;;;;;20.26;50.05;99120.08;;;;-50
2021/12/02 15:22:11;;;;;;;767.25;713.39;;;;;;;20.28;49.97;99122.48;;;;-49
2021/12/02 15:25:13;;;;;;;541.39;504.00;;;;;;;20.29;49.97;99123.81;;;;-48
2021/12/02 15:28:12;;;;;;;458.97;427.85;;;;;;;20.31;49.74;99127.14;;;;-52
2021/12/02 15:31:12;;;;;;;681.13;633.09;;;;;;;20.33;50.36;99132.36;;;;-51
2021/12/02 15:34:11;;;;;;;835.03;769.19;;;;;;;20.35;50.03;99140.14;;;;-52
2021/12/02 15:37:12;;;;;;;724.52;666.14;;;;;;;20.33;49.69;99145.71;;;;-52
2021/12/02 15:40:12;;;;;;;760.38;699.62;;;;;;;20.32;49.55;99150.80;;;;-52
2021/12/02 15:43:12;;;;;;;802.08;737.73;;;;;;;20.30;49.47;99152.78;;;;-50
2021/12/02 15:46:12;;;;;;;797.09;733.01;;;;;;;20.29;49.55;99149.14;;;;-52
2021/12/02 15:49:12;;;;;;;824.87;759.37;;;;;;;20.29;49.54;99154.91;;;;-49
2021/12/02 15:52:11;;;;;;;601.27;551.27;;;;;;;20.32;49.90;99164.78;;;;-48
2021/12/02 15:55:12;;;;;;;631.07;579.27;;;;;;;20.35;49.95;99180.34;;;;-52
2021/12/02 15:58:12;;;;;;;832.43;766.64;;;;;;;20.38;49.88;99188.45;;;;-54
2021/12/02 16:01:13;;;;;;;825.74;760.21;;;;;;;20.40;50.10;99194.83;;;;-52
2021/12/02 16:04:16;;;;;;;841.63;775.35;;;;;;;20.42;50.00;99202.86;;;;-59
2021/12/02 16:07:13;;;;;;;838.91;772.99;;;;;;;20.48;50.02;99210.63;;;;-50
2021/12/02 16:10:33;;;;;;;834.39;768.77;;;;;;;20.51;49.99;99215.79;;;;-50